Time;durP1;ratioP1;P1;durP2;ratioP2;P2;SDS_P1;SDS_P2;PMS_P1;PMS_P2;Temp;Humidity;BMP_temperature;BMP_pressure;BME280_temperature;BME280_humidity;BME280_pressure;Samples;Min_cycle;Max_cycle;Signal;HPM_P1;HPM_P2
2024/01/27 00:00:06;;;;;;;0.00;0.00;;;6.80;99.90;;;;;;5015954;28;20361;-64
2024/01/27 00:02:32;;;;;;;;;;;6.70;99.90;;;;;;4994222;28;21716;-64
2024/01/27 00:04:57;;;;;;;0.00;0.00;;;6.70;99.90;;;;;;4999911;28;20004;-64
2024/01/27 00:07:25;;;;;;;0.00;0.00;;;6.70;99.90;;;;;;4995724;28;20033;-64
2024/01/27 00:09:50;;;;;;;0.00;0.00;;;6.70;99.90;;;;;;4994602;28;20113;-65
2024/01/27 00:12:16;;;;;;;0.00;0.00;;;6.70;99.90;;;;;;5003559;28;20470;-64
2024/01/27 00:14:43;;;;;;;0.00;0.00;;;6.60;99.90;;;;;;5002238;28;20018;-63
2024/01/27 00:17:09;;;;;;;0.00;0.00;;;6.60;99.90;;;;;;4999617;28;20018;-64
2024/01/27 00:19:35;;;;;;;0.00;0.00;;;6.60;99.90;;;;;;4994276;28;20076;-63
2024/01/27 00:22:00;;;;;;;0.00;0.00;;;6.60;99.90;;;;;;5005496;28;20030;-62
2024/01/27 00:24:26;;;;;;;0.00;0.00;;;6.60;99.90;;;;;;5003573;28;20034;-62
2024/01/27 00:26:52;;;;;;;0.00;0.00;;;6.60;99.90;;;;;;5002274;28;20041;-63
2024/01/27 00:29:17;;;;;;;0.00;0.00;;;6.70;99.90;;;;;;5004074;28;20473;-63
2024/01/27 00:31:43;;;;;;;0.00;0.00;;;6.70;99.90;;;;;;4998097;28;20378;-66
2024/01/27 00:34:09;;;;;;;0.00;0.00;;;6.70;99.90;;;;;;5003272;28;20092;-63
2024/01/27 00:36:37;;;;;;;0.00;0.00;;;6.70;99.90;;;;;;5003064;28;20049;-64
2024/01/27 00:39:04;;;;;;;0.00;0.00;;;6.80;99.90;;;;;;5003247;28;20026;-62
2024/01/27 00:41:29;;;;;;;0.00;0.00;;;6.80;99.90;;;;;;5000999;28;20069;-63
2024/01/27 00:43:55;;;;;;;0.00;0.00;;;6.90;99.90;;;;;;4995631;28;20945;-62
2024/01/27 00:46:21;;;;;;;0.00;0.00;;;7.00;99.90;;;;;;5001060;28;20037;-63
2024/01/27 00:48:47;;;;;;;0.00;0.00;;;7.00;99.90;;;;;;5000325;28;20018;-63
2024/01/27 00:51:13;;;;;;;0.00;0.00;;;6.90;99.90;;;;;;4999817;28;20030;-63
2024/01/27 00:53:39;;;;;;;0.00;0.00;;;7.00;99.90;;;;;;4992139;28;20033;-63
2024/01/27 00:56:04;;;;;;;0.00;0.00;;;6.90;99.90;;;;;;4999734;28;20026;-64
2024/01/27 00:58:31;;;;;;;0.00;0.00;;;6.90;99.90;;;;;;5001833;28;20030;-64
2024/01/27 01:00:57;;;;;;;0.00;0.00;;;6.90;99.90;;;;;;4998049;28;20382;-62
2024/01/27 01:03:22;;;;;;;0.00;0.00;;;6.80;99.90;;;;;;4994342;28;20026;-62
2024/01/27 01:05:48;;;;;;;0.00;0.00;;;6.80;99.90;;;;;;5000466;28;20030;-63
2024/01/27 01:08:14;;;;;;;0.00;0.00;;;6.70;99.90;;;;;;4995375;28;20038;-62
2024/01/27 01:10:39;;;;;;;0.00;0.00;;;6.60;99.90;;;;;;4997878;28;20081;-64
2024/01/27 01:13:05;;;;;;;0.00;0.00;;;6.50;99.90;;;;;;4996641;28;20044;-63
2024/01/27 01:15:31;;;;;;;0.00;0.00;;;6.50;99.90;;;;;;5012253;28;20029;-62
2024/01/27 01:17:57;;;;;;;0.00;0.00;;;6.40;99.90;;;;;;5021475;28;20026;-62
2024/01/27 01:20:24;;;;;;;0.00;0.00;;;6.40;99.90;;;;;;4994691;28;20596;-63
2024/01/27 01:22:49;;;;;;;0.00;0.00;;;6.40;99.90;;;;;;4996398;28;20026;-64
2024/01/27 01:25:15;;;;;;;0.00;0.00;;;6.40;99.90;;;;;;4998158;28;20371;-65
2024/01/27 01:27:41;;;;;;;0.00;0.00;;;6.40;99.90;;;;;;4994853;28;20037;-65
2024/01/27 01:30:07;;;;;;;0.00;0.00;;;6.40;99.90;;;;;;5001876;28;20033;-64
2024/01/27 01:32:33;;;;;;;0.00;0.00;;;6.40;99.90;;;;;;4999535;28;20034;-64
2024/01/27 01:34:58;;;;;;;0.00;0.00;;;6.40;99.90;;;;;;5003295;28;20022;-64
2024/01/27 01:37:24;;;;;;;0.00;0.00;;;6.40;99.90;;;;;;5004063;28;20026;-64
2024/01/27 01:39:50;;;;;;;0.00;0.00;;;6.40;99.90;;;;;;5007016;28;20018;-64
2024/01/27 01:42:15;;;;;;;0.00;0.00;;;6.40;99.90;;;;;;5000921;28;20025;-65
2024/01/27 01:44:41;;;;;;;0.00;0.00;;;6.40;99.90;;;;;;5004863;28;20276;-64
2024/01/27 01:47:08;;;;;;;0.00;0.00;;;6.30;99.90;;;;;;5002468;28;20115;-64
2024/01/27 01:49:34;;;;;;;0.00;0.00;;;6.30;99.90;;;;;;5002745;28;20025;-64
2024/01/27 01:52:00;;;;;;;0.00;0.00;;;6.20;99.90;;;;;;4998174;28;21420;-64
2024/01/27 01:54:27;;;;;;;0.00;0.00;;;6.20;99.90;;;;;;4995807;28;20026;-64
2024/01/27 01:56:54;;;;;;;;;;;6.10;99.90;;;;;;5001633;28;20068;-64
2024/01/27 01:59:20;;;;;;;0.00;0.00;;;6.10;99.90;;;;;;4999380;28;20364;-64
2024/01/27 02:01:46;;;;;;;0.00;0.00;;;6.10;99.90;;;;;;4997083;28;20034;-65
2024/01/27 02:04:11;;;;;;;0.00;0.00;;;6.00;99.90;;;;;;4999810;28;20163;-64
2024/01/27 02:06:37;;;;;;;0.00;0.00;;;6.10;99.90;;;;;;4999502;28;20026;-65
2024/01/27 02:09:03;;;;;;;0.00;0.00;;;6.10;99.90;;;;;;4998128;28;20030;-64
2024/01/27 02:11:28;;;;;;;0.00;0.00;;;6.00;99.90;;;;;;4999194;28;20038;-64
2024/01/27 02:13:54;;;;;;;0.00;0.00;;;6.00;99.90;;;;;;4995126;28;20022;-64
2024/01/27 02:16:21;;;;;;;0.00;0.00;;;6.00;99.90;;;;;;5000268;28;20072;-65
2024/01/27 02:18:47;;;;;;;0.00;0.00;;;6.00;99.90;;;;;;4994742;28;20529;-64
2024/01/27 02:21:13;;;;;;;0.00;0.00;;;6.00;99.90;;;;;;4993592;28;20026;-64
2024/01/27 02:23:38;;;;;;;0.00;0.00;;;6.00;99.90;;;;;;4998416;28;20716;-64
2024/01/27 02:26:04;;;;;;;0.00;0.00;;;6.00;99.90;;;;;;4997644;28;20030;-64
2024/01/27 02:28:33;;;;;;;0.00;0.00;;;6.00;99.90;;;;;;4998452;28;20058;-65
2024/01/27 02:31:02;;;;;;;0.00;0.00;;;6.00;99.90;;;;;;4994839;28;20470;-65
2024/01/27 02:33:28;;;;;;;0.00;0.00;;;6.00;99.90;;;;;;4997683;28;20212;-62
2024/01/27 02:35:54;;;;;;;0.00;0.00;;;6.00;99.90;;;;;;4997086;28;20018;-62
2024/01/27 02:38:20;;;;;;;0.00;0.00;;;6.00;99.90;;;;;;4994303;28;20088;-63
2024/01/27 02:40:46;;;;;;;0.00;0.00;;;6.00;99.90;;;;;;4996584;28;20034;-62
2024/01/27 02:43:11;;;;;;;0.00;0.00;;;5.90;99.90;;;;;;4992802;28;20022;-64
2024/01/27 02:45:37;;;;;;;0.00;0.00;;;5.90;99.90;;;;;;4999140;28;20022;-63
2024/01/27 02:48:03;;;;;;;0.00;0.00;;;5.90;99.90;;;;;;4997172;28;20026;-63
2024/01/27 02:50:28;;;;;;;0.00;0.00;;;5.80;99.90;;;;;;4999111;28;20676;-63
2024/01/27 02:52:54;;;;;;;0.00;0.00;;;5.80;99.90;;;;;;4998318;28;20018;-62
2024/01/27 02:55:20;;;;;;;0.00;0.00;;;5.80;99.90;;;;;;4998539;28;20032;-63
2024/01/27 02:57:45;;;;;;;0.00;0.00;;;5.90;99.90;;;;;;4994256;28;20032;-63
2024/01/27 03:00:11;;;;;;;0.00;0.00;;;5.90;99.90;;;;;;4998892;28;20025;-63
2024/01/27 03:02:37;;;;;;;0.00;0.00;;;5.90;99.90;;;;;;4999265;28;20026;-62
2024/01/27 03:05:03;;;;;;;0.00;0.00;;;5.90;99.90;;;;;;5001562;28;20076;-62
2024/01/27 03:07:29;;;;;;;0.00;0.00;;;6.00;99.90;;;;;;4996522;28;20036;-62
2024/01/27 03:09:54;;;;;;;0.00;0.00;;;6.00;99.90;;;;;;4997225;28;20034;-62
2024/01/27 03:12:22;;;;;;;0.00;0.00;;;5.90;99.90;;;;;;4994304;28;20026;-62
2024/01/27 03:14:49;;;;;;;0.00;0.00;;;6.00;99.90;;;;;;4997719;28;20021;-63
2024/01/27 03:17:15;;;;;;;0.00;0.00;;;6.00;99.90;;;;;;4998825;28;20026;-63
2024/01/27 03:19:41;;;;;;;0.00;0.00;;;6.00;99.90;;;;;;4995101;28;20033;-63
2024/01/27 03:22:07;;;;;;;0.00;0.00;;;5.90;99.90;;;;;;4999671;28;20060;-62
2024/01/27 03:24:32;;;;;;;0.00;0.00;;;5.90;99.90;;;;;;5020087;28;20065;-64
2024/01/27 03:26:58;;;;;;;0.00;0.00;;;5.80;99.90;;;;;;5005029;28;20092;-63
2024/01/27 03:29:24;;;;;;;0.00;0.00;;;5.70;99.90;;;;;;4993233;28;20508;-63
2024/01/27 03:31:49;;;;;;;0.00;0.00;;;5.60;99.90;;;;;;5000824;28;20845;-62
2024/01/27 03:34:17;;;;;;;0.00;0.00;;;5.60;99.90;;;;;;4995176;28;20061;-62
2024/01/27 03:36:43;;;;;;;0.00;0.00;;;5.60;99.90;;;;;;4998215;28;20599;-62
2024/01/27 03:39:08;;;;;;;0.00;0.00;;;5.50;99.90;;;;;;4992956;28;20031;-63
2024/01/27 03:41:34;;;;;;;0.00;0.00;;;5.40;99.90;;;;;;4999335;28;20018;-63
2024/01/27 03:44:00;;;;;;;0.00;0.00;;;5.50;99.90;;;;;;4996487;28;20032;-62
2024/01/27 03:46:25;;;;;;;0.00;0.00;;;5.50;99.90;;;;;;4996943;28;20109;-62
2024/01/27 03:48:51;;;;;;;0.00;0.00;;;5.50;99.90;;;;;;4998990;28;20609;-62
2024/01/27 03:51:17;;;;;;;0.00;0.00;;;5.50;99.90;;;;;;4998277;28;20042;-63
2024/01/27 03:53:42;;;;;;;0.00;0.00;;;5.50;99.90;;;;;;4995462;28;20041;-62
2024/01/27 03:56:12;;;;;;;0.00;0.00;;;5.40;99.90;;;;;;4999436;28;20578;-62
2024/01/27 03:58:38;;;;;;;0.00;0.00;;;5.40;99.90;;;;;;5002120;28;20018;-62
2024/01/27 04:01:04;;;;;;;0.00;0.00;;;5.30;99.90;;;;;;5003150;28;20034;-62
2024/01/27 04:03:30;;;;;;;0.00;0.00;;;5.30;99.90;;;;;;5008641;28;20034;-62
2024/01/27 04:05:55;;;;;;;0.00;0.00;;;5.20;99.90;;;;;;5006459;28;20057;-62
2024/01/27 04:08:21;;;;;;;0.00;0.00;;;5.20;99.90;;;;;;5005087;28;20061;-62
2024/01/27 04:10:47;;;;;;;0.00;0.00;;;5.20;99.90;;;;;;5004687;28;20149;-64
2024/01/27 04:13:12;;;;;;;0.00;0.00;;;5.10;99.90;;;;;;5005215;28;20041;-62
2024/01/27 04:15:38;;;;;;;0.00;0.00;;;5.10;99.90;;;;;;5005833;28;20026;-62
2024/01/27 04:18:07;;;;;;;0.00;0.00;;;5.20;99.90;;;;;;5003475;28;20137;-63
2024/01/27 04:20:33;;;;;;;0.00;0.00;;;5.10;99.90;;;;;;5003996;28;20026;-63
2024/01/27 04:23:00;;;;;;;0.00;0.00;;;5.10;99.90;;;;;;5000802;28;20184;-63
2024/01/27 04:25:25;;;;;;;0.00;0.00;;;5.10;99.90;;;;;;5004793;28;20452;-62
2024/01/27 04:27:51;;;;;;;0.00;0.00;;;5.00;99.90;;;;;;4999328;28;20030;-63
2024/01/27 04:30:16;;;;;;;0.00;0.00;;;5.00;99.90;;;;;;5004554;28;20157;-62
2024/01/27 04:32:42;;;;;;;0.00;0.00;;;5.00;99.90;;;;;;5002577;28;20025;-62
2024/01/27 04:35:11;;;;;;;0.00;0.00;;;5.00;99.90;;;;;;5002704;28;20076;-65
2024/01/27 04:37:38;;;;;;;0.00;0.00;;;4.90;99.90;;;;;;5004241;28;20018;-63
2024/01/27 04:40:05;;;;;;;0.00;0.00;;;4.90;99.90;;;;;;5003400;28;20466;-63
2024/01/27 04:42:34;;;;;;;0.00;0.00;;;4.90;99.90;;;;;;4999587;28;20030;-63
2024/01/27 04:44:59;;;;;;;0.00;0.00;;;4.90;99.90;;;;;;5003835;28;21890;-62
2024/01/27 04:47:25;;;;;;;0.00;0.00;;;4.90;99.90;;;;;;5004904;28;20032;-63
2024/01/27 04:49:51;;;;;;;0.00;0.00;;;4.90;99.90;;;;;;4999728;28;20382;-62
2024/01/27 04:52:17;;;;;;;0.00;0.00;;;4.90;99.90;;;;;;5004638;28;20628;-62
2024/01/27 04:54:43;;;;;;;0.00;0.00;;;4.90;99.90;;;;;;5003910;28;20393;-64
2024/01/27 04:57:09;;;;;;;0.00;0.00;;;4.90;99.90;;;;;;5004801;28;20037;-64
2024/01/27 04:59:35;;;;;;;0.00;0.00;;;4.80;99.90;;;;;;5004304;28;20034;-64
2024/01/27 05:02:01;;;;;;;0.00;0.00;;;4.80;99.90;;;;;;5002439;28;20021;-64
2024/01/27 05:04:27;;;;;;;0.00;0.00;;;4.90;99.90;;;;;;5000139;28;20030;-64
2024/01/27 05:06:53;;;;;;;0.00;0.00;;;4.90;99.90;;;;;;5004068;28;20045;-64
2024/01/27 05:09:19;;;;;;;0.00;0.00;;;5.00;99.90;;;;;;4999906;28;20718;-64
2024/01/27 05:11:45;;;;;;;0.00;0.00;;;4.90;99.90;;;;;;4996710;28;20626;-64
2024/01/27 05:14:11;;;;;;;0.00;0.00;;;4.90;99.90;;;;;;5000795;28;20010;-64
2024/01/27 05:16:37;;;;;;;0.00;0.00;;;4.80;99.90;;;;;;4999909;28;20033;-65
2024/01/27 05:19:03;;;;;;;0.00;0.00;;;4.80;99.90;;;;;;4998192;28;20026;-64
2024/01/27 05:21:28;;;;;;;0.00;0.00;;;4.80;99.90;;;;;;4996709;28;20665;-64
2024/01/27 05:23:54;;;;;;;0.00;0.00;;;4.80;99.90;;;;;;4997363;28;20061;-64
2024/01/27 05:26:21;;;;;;;0.00;0.00;;;4.80;99.90;;;;;;4998322;28;20037;-65
2024/01/27 05:28:46;;;;;;;0.00;0.00;;;4.80;99.90;;;;;;4999757;28;20257;-65
2024/01/27 05:31:12;;;;;;;0.00;0.00;;;4.80;99.90;;;;;;4996938;28;20041;-64
2024/01/27 05:33:39;;;;;;;0.00;0.00;;;4.70;99.90;;;;;;4995354;28;20603;-64
2024/01/27 05:36:05;;;;;;;0.00;0.00;;;4.70;99.90;;;;;;4999264;28;20014;-64
2024/01/27 05:38:31;;;;;;;0.00;0.00;;;4.70;99.90;;;;;;4994182;28;20042;-64
2024/01/27 05:41:01;;;;;;;0.00;0.00;;;4.70;99.90;;;;;;4998595;28;20424;-64
2024/01/27 05:43:26;;;;;;;0.00;0.00;;;4.70;99.90;;;;;;4994056;28;20064;-67
2024/01/27 05:45:53;;;;;;;0.00;0.00;;;4.70;99.90;;;;;;4999175;28;20053;-64
2024/01/27 05:48:18;;;;;;;0.00;0.00;;;4.70;99.90;;;;;;4999433;28;20025;-64
2024/01/27 05:50:54;;;;;;;0.00;0.00;;;4.70;99.90;;;;;;4997003;28;20055;-64
2024/01/27 05:53:20;;;;;;;0.00;0.00;;;4.70;99.90;;;;;;4994302;28;20113;-64
2024/01/27 05:55:47;;;;;;;0.00;0.00;;;4.70;99.90;;;;;;4998119;28;20097;-64
2024/01/27 05:58:12;;;;;;;0.00;0.00;;;4.60;99.90;;;;;;4994180;28;20034;-64
2024/01/27 06:00:38;;;;;;;0.00;0.00;;;4.60;99.90;;;;;;4999867;28;20040;-64
2024/01/27 06:03:04;;;;;;;0.00;0.00;;;4.60;99.90;;;;;;4999483;28;20029;-62
2024/01/27 06:05:29;;;;;;;0.00;0.00;;;4.60;99.90;;;;;;5000591;28;20034;-62
2024/01/27 06:07:55;;;;;;;0.00;0.00;;;4.60;99.90;;;;;;5013258;28;20018;-62
2024/01/27 06:10:21;;;;;;;0.00;0.00;;;4.70;99.90;;;;;;4994711;28;20477;-62
2024/01/27 06:12:47;;;;;;;0.00;0.00;;;4.70;99.90;;;;;;4998524;28;20029;-65
2024/01/27 06:15:12;;;;;;;0.00;0.00;;;4.80;99.90;;;;;;4999074;28;20034;-67
2024/01/27 06:17:38;;;;;;;0.00;0.00;;;4.90;99.90;;;;;;4999326;28;20028;-65
2024/01/27 06:20:04;;;;;;;0.00;0.00;;;4.90;99.90;;;;;;4998497;28;20022;-64
2024/01/27 06:22:32;;;;;;;0.00;0.00;;;4.90;99.90;;;;;;4997972;28;20034;-66
2024/01/27 06:24:58;;;;;;;0.00;0.00;;;5.00;99.90;;;;;;4998628;28;20800;-64
2024/01/27 06:27:23;;;;;;;0.00;0.00;;;4.90;99.90;;;;;;5014993;28;20026;-65
2024/01/27 06:29:49;;;;;;;0.00;0.00;;;4.90;99.90;;;;;;4999001;28;20104;-63
2024/01/27 06:32:15;;;;;;;0.00;0.00;;;4.90;99.90;;;;;;4998286;28;20048;-62
2024/01/27 06:34:41;;;;;;;0.00;0.00;;;4.80;99.90;;;;;;4999214;28;20021;-63
2024/01/27 06:37:07;;;;;;;0.00;0.00;;;5.00;99.90;;;;;;4999726;28;20045;-64
2024/01/27 06:39:32;;;;;;;0.00;0.00;;;5.10;99.90;;;;;;4996154;28;20594;-63
2024/01/27 06:41:58;;;;;;;0.00;0.00;;;5.30;99.90;;;;;;5000022;28;20022;-63
2024/01/27 06:44:24;;;;;;;0.00;0.00;;;5.50;99.90;;;;;;4999745;28;20089;-64
2024/01/27 06:46:50;;;;;;;0.00;0.00;;;5.70;99.90;;;;;;4999422;28;20068;-62
2024/01/27 06:49:19;;;;;;;0.00;0.00;;;5.70;99.90;;;;;;5004016;28;20505;-63
2024/01/27 06:51:45;;;;;;;0.00;0.00;;;5.50;99.90;;;;;;4995882;28;20022;-63
2024/01/27 06:54:14;;;;;;;0.00;0.00;;;5.60;99.90;;;;;;4999028;28;20033;-62
2024/01/27 06:56:39;;;;;;;0.00;0.00;;;6.10;99.90;;;;;;4993245;28;20021;-63
2024/01/27 06:59:05;;;;;;;0.00;0.00;;;6.70;99.90;;;;;;4997416;28;20026;-62
2024/01/27 07:01:31;;;;;;;0.00;0.00;;;7.60;99.90;;;;;;4997513;28;20330;-63
2024/01/27 07:03:56;;;;;;;0.00;0.00;;;8.20;99.90;;;;;;4995444;28;20017;-62
2024/01/27 07:06:22;;;;;;;0.00;0.00;;;8.90;99.90;;;;;;5001346;28;20118;-62
2024/01/27 07:08:48;;;;;;;0.00;0.00;;;9.40;99.90;;;;;;4994314;28;20022;-67
2024/01/27 07:11:13;;;;;;;0.00;0.00;;;10.00;99.90;;;;;;4996912;28;20028;-62
2024/01/27 07:13:40;;;;;;;0.07;0.07;;;10.40;99.90;;;;;;4997328;28;20026;-64
2024/01/27 07:16:06;;;;;;;0.00;0.00;;;10.80;99.70;;;;;;4998933;28;20052;-61
2024/01/27 07:18:34;;;;;;;0.00;0.00;;;11.40;99.10;;;;;;4998194;28;21315;-63
2024/01/27 07:21:01;;;;;;;0.00;0.00;;;11.80;97.40;;;;;;4998081;28;21279;-63
2024/01/27 07:23:26;;;;;;;0.00;0.00;;;12.20;96.00;;;;;;4997218;28;20105;-62
2024/01/27 07:25:52;;;;;;;0.00;0.00;;;12.60;95.70;;;;;;4999346;28;20681;-62
2024/01/27 07:28:18;;;;;;;0.00;0.00;;;13.10;95.20;;;;;;5002838;28;20038;-64
2024/01/27 07:30:44;;;;;;;0.00;0.00;;;13.50;93.60;;;;;;4995923;28;20751;-64
2024/01/27 07:33:10;;;;;;;0.00;0.00;;;14.00;92.00;;;;;;4997081;28;20676;-63
2024/01/27 07:35:36;;;;;;;0.00;0.00;;;14.10;91.00;;;;;;4997792;28;20018;-64
2024/01/27 07:38:01;;;;;;;0.00;0.00;;;14.40;90.00;;;;;;4996541;28;20560;-62
2024/01/27 07:40:27;;;;;;;0.00;0.00;;;14.60;89.40;;;;;;4993148;28;20654;-63
2024/01/27 07:42:53;;;;;;;0.00;0.00;;;14.80;87.60;;;;;;4997036;28;20276;-62
2024/01/27 07:45:18;;;;;;;0.00;0.00;;;15.20;85.90;;;;;;4996124;28;20030;-71
2024/01/27 07:47:44;;;;;;;0.00;0.00;;;15.30;84.00;;;;;;4998160;28;20025;-63
2024/01/27 07:50:10;;;;;;;0.00;0.00;;;15.50;82.70;;;;;;4998592;28;20029;-64
2024/01/27 07:52:36;;;;;;;0.00;0.00;;;15.40;82.40;;;;;;5001003;28;20037;-62
2024/01/27 07:55:01;;;;;;;0.00;0.00;;;15.80;82.20;;;;;;4993236;28;20262;-61
2024/01/27 07:57:28;;;;;;;0.10;0.10;;;15.50;80.50;;;;;;5001312;28;20083;-62
2024/01/27 07:59:53;;;;;;;0.00;0.00;;;15.10;81.10;;;;;;4994180;28;20080;-63
2024/01/27 08:02:19;;;;;;;0.00;0.00;;;14.70;82.20;;;;;;4996451;28;20034;-62
2024/01/27 08:04:45;;;;;;;0.00;0.00;;;15.00;83.20;;;;;;4999739;28;20072;-63
2024/01/27 08:07:10;;;;;;;0.00;0.00;;;15.30;82.00;;;;;;4993521;28;20030;-64
2024/01/27 08:09:37;;;;;;;0.00;0.00;;;14.90;80.50;;;;;;4996126;28;20576;-62
2024/01/27 08:12:03;;;;;;;0.00;0.00;;;14.30;82.00;;;;;;4997446;28;20549;-63
2024/01/27 08:14:33;;;;;;;0.00;0.00;;;14.60;81.80;;;;;;4995817;28;20133;-63
2024/01/27 08:16:59;;;;;;;0.00;0.00;;;13.90;82.00;;;;;;4991577;28;20029;-62
2024/01/27 08:19:25;;;;;;;0.00;0.00;;;13.10;83.90;;;;;;4995794;28;20805;-62
2024/01/27 08:21:50;;;;;;;0.00;0.00;;;12.40;86.10;;;;;;4996702;28;20080;-63
2024/01/27 08:24:16;;;;;;;0.00;0.00;;;11.90;87.00;;;;;;4996657;28;20037;-64
2024/01/27 08:26:42;;;;;;;0.00;0.00;;;11.50;89.20;;;;;;4993252;28;20061;-65
2024/01/27 08:29:09;;;;;;;0.00;0.00;;;11.30;90.00;;;;;;4994986;28;20062;-64
2024/01/27 08:31:34;;;;;;;;;;;12.00;88.60;;;;;;4996881;28;20057;-64
2024/01/27 08:34:00;;;;;;;0.00;0.00;;;13.20;85.80;;;;;;4996787;28;20232;-64
2024/01/27 08:36:25;;;;;;;0.00;0.00;;;14.40;83.90;;;;;;4997146;28;20496;-64
2024/01/27 08:38:51;;;;;;;0.10;0.10;;;15.50;80.20;;;;;;4994977;28;20106;-64
2024/01/27 08:41:17;;;;;;;0.00;0.00;;;15.50;79.30;;;;;;4992468;28;20030;-65
2024/01/27 08:43:42;;;;;;;0.00;0.00;;;16.30;78.00;;;;;;4999747;28;20026;-65
2024/01/27 08:46:11;;;;;;;0.00;0.00;;;17.60;75.10;;;;;;5001864;28;20041;-66
2024/01/27 08:48:37;;;;;;;0.00;0.00;;;18.20;71.80;;;;;;4997598;28;20407;-65
2024/01/27 08:51:02;;;;;;;0.00;0.00;;;18.90;70.30;;;;;;5001540;28;20026;-65
2024/01/27 08:53:28;;;;;;;0.00;0.00;;;19.30;68.50;;;;;;5000081;28;20038;-65
2024/01/27 08:55:54;;;;;;;0.00;0.00;;;19.50;67.80;;;;;;4998040;28;20022;-65
2024/01/27 08:58:19;;;;;;;0.00;0.00;;;19.70;66.30;;;;;;5000357;28;20458;-64
2024/01/27 09:00:45;;;;;;;0.00;0.00;;;19.80;64.50;;;;;;5001785;28;20473;-65
2024/01/27 09:03:12;;;;;;;0.00;0.00;;;20.10;64.40;;;;;;5000993;28;20404;-64
2024/01/27 09:05:38;;;;;;;0.00;0.00;;;20.40;63.40;;;;;;4998227;28;20030;-64
2024/01/27 09:08:04;;;;;;;;;;;21.20;62.70;;;;;;4997388;28;20061;-65
2024/01/27 09:10:30;;;;;;;0.00;0.00;;;21.10;60.70;;;;;;4999720;28;19960;-65
2024/01/27 09:12:55;;;;;;;0.00;0.00;;;21.70;60.40;;;;;;4995044;28;20025;-64
2024/01/27 09:15:21;;;;;;;0.00;0.00;;;21.90;60.00;;;;;;4997929;28;20033;-64
2024/01/27 09:17:48;;;;;;;0.00;0.00;;;21.60;59.60;;;;;;4995955;28;20144;-63
2024/01/27 09:20:14;;;;;;;0.20;0.20;;;22.20;59.80;;;;;;5000673;28;20088;-63
2024/01/27 09:22:41;;;;;;;0.00;0.00;;;21.60;60.20;;;;;;5000068;28;20109;-63
2024/01/27 09:25:08;;;;;;;0.00;0.00;;;21.20;59.80;;;;;;4998939;28;20080;-63
2024/01/27 09:27:34;;;;;;;0.00;0.00;;;21.70;60.40;;;;;;5000716;28;20339;-63
2024/01/27 09:29:59;;;;;;;0.00;0.00;;;22.10;59.30;;;;;;5000297;28;20034;-63
2024/01/27 09:32:25;;;;;;;0.00;0.00;;;22.30;59.30;;;;;;4999009;28;20347;-63
2024/01/27 09:34:53;;;;;;;0.00;0.00;;;22.70;59.10;;;;;;4999192;28;20025;-63
2024/01/27 09:37:19;;;;;;;0.20;0.10;;;22.00;58.80;;;;;;4997046;28;20361;-63
2024/01/27 09:39:44;;;;;;;0.00;0.00;;;22.00;58.60;;;;;;5000761;28;20026;-64
2024/01/27 09:42:13;;;;;;;0.00;0.00;;;22.10;58.20;;;;;;5003057;28;20508;-64
2024/01/27 09:44:39;;;;;;;0.00;0.00;;;22.30;58.60;;;;;;4996773;28;20297;-63
2024/01/27 09:47:05;;;;;;;0.00;0.00;;;22.10;57.50;;;;;;4999609;28;20058;-63
2024/01/27 09:49:31;;;;;;;0.05;0.03;;;21.20;57.50;;;;;;4994604;28;20056;-63
2024/01/27 09:51:57;;;;;;;0.00;0.00;;;21.10;58.40;;;;;;4999507;28;20026;-63
2024/01/27 09:54:23;;;;;;;0.00;0.00;;;22.30;57.60;;;;;;5026129;28;20076;-63
2024/01/27 09:56:50;;;;;;;0.00;0.00;;;22.50;56.60;;;;;;4998464;28;20022;-63
2024/01/27 09:59:18;;;;;;;0.10;0.10;;;23.00;56.10;;;;;;4998762;28;20038;-63
2024/01/27 10:01:44;;;;;;;0.00;0.00;;;22.70;56.40;;;;;;4998464;28;20018;-64
2024/01/27 10:04:09;;;;;;;0.00;0.00;;;23.30;55.50;;;;;;5000439;28;20472;-64
2024/01/27 10:06:35;;;;;;;0.00;0.00;;;23.30;54.80;;;;;;5001209;28;20033;-64
2024/01/27 10:09:01;;;;;;;0.00;0.00;;;23.00;55.80;;;;;;4999816;28;20034;-63
2024/01/27 10:11:28;;;;;;;0.00;0.00;;;23.70;55.50;;;;;;4999258;28;20477;-64
2024/01/27 10:13:55;;;;;;;0.00;0.00;;;23.50;55.00;;;;;;4998334;28;20022;-64
2024/01/27 10:16:21;;;;;;;0.00;0.00;;;23.50;54.50;;;;;;4991863;28;20026;-64
2024/01/27 10:18:47;;;;;;;0.00;0.00;;;23.70;54.00;;;;;;4999425;28;20030;-63
2024/01/27 10:21:18;;;;;;;0.00;0.00;;;23.20;54.20;;;;;;5025918;28;20033;-64
2024/01/27 10:23:43;;;;;;;0.00;0.00;;;22.60;53.90;;;;;;5000299;28;20026;-63
2024/01/27 10:26:10;;;;;;;0.00;0.00;;;22.40;55.00;;;;;;4999411;28;20752;-63
2024/01/27 10:28:35;;;;;;;0.00;0.00;;;22.90;54.70;;;;;;5015085;28;20584;-63
2024/01/27 10:31:13;;;;;;;0.00;0.00;;;23.50;54.30;;;;;;4998782;28;20153;-63
2024/01/27 10:33:39;;;;;;;0.00;0.00;;;23.50;53.30;;;;;;4995045;28;20033;-63
2024/01/27 10:36:06;;;;;;;0.00;0.00;;;23.70;53.00;;;;;;5000310;28;20367;-64
2024/01/27 10:38:38;;;;;;;0.00;0.00;;;23.00;53.20;;;;;;4993345;28;20037;-64
2024/01/27 10:41:10;;;;;;;0.00;0.00;;;22.60;53.50;;;;;;4999947;28;20025;-63
2024/01/27 10:43:36;;;;;;;0.00;0.00;;;20.00;55.40;;;;;;4999651;28;20034;-61
2024/01/27 10:46:13;;;;;;;0.00;0.00;;;19.60;57.70;;;;;;4994867;28;20040;-61
2024/01/27 10:48:42;;;;;;;0.00;0.00;;;20.70;57.40;;;;;;5028040;28;20053;-63
2024/01/27 10:51:09;;;;;;;0.00;0.00;;;20.30;57.50;;;;;;4989286;28;20092;-62
2024/01/27 10:53:37;;;;;;;0.00;0.00;;;20.90;56.90;;;;;;5000250;28;20018;-62
2024/01/27 10:56:08;;;;;;;0.00;0.00;;;22.20;55.50;;;;;;4998281;28;20112;-61
2024/01/27 10:58:40;;;;;;;0.00;0.00;;;22.50;54.80;;;;;;4999743;28;20481;-61
2024/01/27 11:01:10;;;;;;;0.00;0.00;;;23.40;54.00;;;;;;4997529;28;20033;-62
2024/01/27 11:03:42;;;;;;;0.00;0.00;;;23.30;53.60;;;;;;4998447;28;20024;-61
2024/01/27 11:06:07;;;;;;;0.00;0.00;;;23.10;53.00;;;;;;4998024;28;20109;-62
2024/01/27 11:08:38;;;;;;;0.00;0.00;;;20.50;54.90;;;;;;4993409;28;20113;-62
2024/01/27 11:11:04;;;;;;;0.00;0.00;;;18.30;57.50;;;;;;4997295;28;20088;-62
2024/01/27 11:13:33;;;;;;;0.00;0.00;;;16.30;60.80;;;;;;4998477;28;20072;-61
2024/01/27 11:15:59;;;;;;;0.00;0.00;;;15.70;62.50;;;;;;4996616;28;20085;-62
2024/01/27 11:18:26;;;;;;;0.00;0.00;;;14.40;64.80;;;;;;4999138;28;20026;-61
2024/01/27 11:20:55;;;;;;;0.00;0.00;;;13.30;67.70;;;;;;4998457;28;20458;-61
2024/01/27 11:23:35;;;;;;;0.00;0.00;;;12.30;69.20;;;;;;4995134;28;20017;-61
2024/01/27 11:26:05;;;;;;;0.00;0.00;;;11.50;71.50;;;;;;4996944;28;20037;-62
2024/01/27 11:28:31;;;;;;;0.00;0.00;;;11.10;72.80;;;;;;4997651;28;20117;-61
2024/01/27 11:30:56;;;;;;;0.00;0.00;;;10.50;73.30;;;;;;4997072;28;20109;-61
2024/01/27 11:33:25;;;;;;;0.00;0.00;;;10.10;75.20;;;;;;4993611;28;20413;-61
2024/01/27 11:36:02;;;;;;;0.00;0.00;;;10.30;76.50;;;;;;4996256;28;20120;-62
2024/01/27 11:38:27;;;;;;;0.00;0.00;;;10.30;76.90;;;;;;4997034;28;20022;-62
2024/01/27 11:40:53;;;;;;;0.00;0.00;;;10.40;77.10;;;;;;4993396;28;20109;-61
2024/01/27 11:43:19;;;;;;;0.00;0.00;;;10.00;77.40;;;;;;4997530;28;20026;-62
2024/01/27 11:46:01;;;;;;;0.00;0.00;;;10.00;77.70;;;;;;4994589;28;20105;-64
2024/01/27 11:48:30;;;;;;;0.00;0.00;;;10.00;78.50;;;;;;5011443;28;20036;-62
2024/01/27 11:51:11;;;;;;;0.00;0.00;;;10.20;78.40;;;;;;4993075;28;20058;-61
2024/01/27 11:53:37;;;;;;;0.00;0.00;;;10.50;79.90;;;;;;4998838;28;20037;-63
2024/01/27 11:56:04;;;;;;;0.00;0.00;;;10.70;78.40;;;;;;4996305;28;20091;-64
2024/01/27 11:58:30;;;;;;;0.00;0.00;;;10.90;78.00;;;;;;4996971;28;20037;-63
2024/01/27 12:00:58;;;;;;;0.00;0.00;;;10.70;78.10;;;;;;4993127;28;20021;-63
2024/01/27 12:03:24;;;;;;;0.00;0.00;;;10.50;77.70;;;;;;4996975;28;20046;-62
2024/01/27 12:05:50;;;;;;;0.00;0.00;;;10.20;79.00;;;;;;4997242;28;20033;-63
2024/01/27 12:08:19;;;;;;;0.00;0.00;;;10.10;80.10;;;;;;4995383;28;20374;-63
2024/01/27 12:10:44;;;;;;;0.00;0.00;;;10.20;79.90;;;;;;4993406;28;20069;-63
2024/01/27 12:13:10;;;;;;;0.00;0.00;;;10.40;78.50;;;;;;4992576;28;20057;-63
2024/01/27 12:15:36;;;;;;;0.00;0.00;;;10.50;79.90;;;;;;4990553;28;20583;-63
2024/01/27 12:18:04;;;;;;;0.00;0.00;;;10.50;81.30;;;;;;4996785;28;20112;-62
2024/01/27 12:20:30;;;;;;;0.00;0.00;;;10.40;81.10;;;;;;4994220;28;20069;-63
2024/01/27 12:23:08;;;;;;;0.00;0.00;;;10.40;80.90;;;;;;4998262;28;20052;-63
2024/01/27 12:25:34;;;;;;;0.00;0.00;;;10.50;81.40;;;;;;4999787;28;20038;-65
2024/01/27 12:28:04;;;;;;;0.00;0.00;;;10.80;85.60;;;;;;5021673;28;20029;-65
2024/01/27 12:30:33;;;;;;;0.00;0.00;;;11.00;82.00;;;;;;4999384;28;20030;-65
2024/01/27 12:32:59;;;;;;;0.00;0.00;;;11.20;79.80;;;;;;5016838;28;20770;-64
2024/01/27 12:35:26;;;;;;;0.00;0.00;;;11.20;79.20;;;;;;5022240;28;20386;-64
2024/01/27 12:37:53;;;;;;;0.00;0.00;;;11.10;78.70;;;;;;4993518;28;20080;-64
2024/01/27 12:40:19;;;;;;;;;;;11.00;79.20;;;;;;5001085;28;20330;-64
2024/01/27 12:42:45;;;;;;;0.00;0.00;;;10.90;79.90;;;;;;4998834;28;20541;-65
2024/01/27 12:45:10;;;;;;;0.00;0.00;;;10.80;80.20;;;;;;4995851;28;20095;-65
2024/01/27 12:47:36;;;;;;;0.00;0.00;;;10.70;81.00;;;;;;4998358;28;20026;-64